Time;durP1;ratioP1;P1;durP2;ratioP2;P2;SDS_P1;SDS_P2;PMS_P1;PMS_P2;Temp;Humidity;BMP_temperature;BMP_pressure;BME280_temperature;BME280_humidity;BME280_pressure;Samples;Min_cycle;Max_cycle;Signal;HPM_P1;HPM_P2
2023/08/01 00:00:40;;;;;;;2.75;2.33;;;;;;;19.82;73.33;99457.41;2064560;28;20858;-72
2023/08/01 00:01:44;;;;;;;3.30;2.20;;;;;;;19.82;73.29;99456.63;2056953;28;20062;-72
2023/08/01 00:02:46;;;;;;;3.50;1.92;;;;;;;19.81;73.09;99452.34;2064723;28;20031;-74
2023/08/01 00:03:51;;;;;;;3.53;2.13;;;;;;;19.82;73.36;99451.16;2056274;28;20071;-73
2023/08/01 00:04:52;;;;;;;4.30;2.15;;;;;;;19.81;73.29;99449.59;2056848;28;20871;-74
2023/08/01 00:05:55;;;;;;;4.57;1.98;;;;;;;19.80;73.39;99448.03;2056012;28;20847;-74
2023/08/01 00:06:56;;;;;;;4.20;2.15;;;;;;;19.80;73.48;99446.09;2065058;28;21267;-73
2023/08/01 00:08:00;;;;;;;5.57;2.22;;;;;;;19.80;73.39;99437.91;2072558;28;20135;-73
2023/08/01 00:09:01;;;;;;;3.55;2.17;;;;;;;19.79;73.47;99441.00;2064523;28;20026;-73
2023/08/01 00:10:07;;;;;;;3.08;1.90;;;;;;;19.77;73.39;99433.19;2072639;28;20096;-73
2023/08/01 00:11:09;;;;;;;4.43;2.15;;;;;;;19.78;73.32;99439.44;2072212;28;20033;-73
2023/08/01 00:12:12;;;;;;;5.45;2.22;;;;;;;19.79;73.40;99438.28;2066783;28;20041;-73
2023/08/01 00:13:18;;;;;;;3.53;2.22;;;;;;;19.74;73.41;99433.16;2057276;28;20027;-73
2023/08/01 00:14:23;;;;;;;3.42;2.03;;;;;;;19.77;73.44;99435.13;2064398;28;20061;-73
2023/08/01 00:15:26;;;;;;;5.93;2.20;;;;;;;19.75;73.51;99429.25;2056807;28;20042;-73
2023/08/01 00:16:28;;;;;;;3.78;2.25;;;;;;;19.75;73.46;99431.97;2064232;28;20999;-73
2023/08/01 00:17:31;;;;;;;4.80;2.40;;;;;;;19.71;73.50;99422.97;2064087;28;20030;-74
2023/08/01 00:18:35;;;;;;;4.22;2.33;;;;;;;19.75;73.54;99429.25;2041400;28;20787;-74
2023/08/01 00:19:39;;;;;;;6.28;2.28;;;;;;;19.74;73.26;99433.16;2048382;28;20858;-73
2023/08/01 00:20:42;;;;;;;3.20;2.10;;;;;;;19.74;73.35;99427.69;2057187;28;20039;-73
2023/08/01 00:21:43;;;;;;;5.70;2.10;;;;;;;19.71;73.57;99426.47;2072427;28;20069;-73
2023/08/01 00:22:45;;;;;;;6.78;2.30;;;;;;;19.71;73.51;99434.66;2063939;28;20856;-74
2023/08/01 00:23:47;;;;;;;4.18;2.40;;;;;;;19.70;73.30;99424.88;2048378;28;20131;-73
2023/08/01 00:24:51;;;;;;;4.32;2.25;;;;;;;19.70;73.44;99426.84;2048141;28;20099;-73
2023/08/01 00:25:53;;;;;;;3.50;2.28;;;;;;;19.69;73.45;99428.78;2056609;28;20070;-73
2023/08/01 00:26:56;;;;;;;4.30;2.22;;;;;;;19.68;73.45;99425.28;2055941;28;21257;-73
2023/08/01 00:27:58;;;;;;;3.58;2.30;;;;;;;19.70;73.48;99435.00;2068499;28;20053;-74
2023/08/01 00:29:02;;;;;;;4.25;2.30;;;;;;;19.69;73.34;99431.50;2048638;28;20855;-73
2023/08/01 00:30:11;;;;;;;5.72;2.67;;;;;;;19.68;73.38;99430.72;2056806;28;20043;-73
2023/08/01 00:31:15;;;;;;;4.50;2.20;;;;;;;19.66;73.33;99426.78;2072817;28;20144;-74
2023/08/01 00:32:21;;;;;;;6.20;2.60;;;;;;;19.66;73.45;99426.78;2072049;28;20019;-73
2023/08/01 00:33:23;;;;;;;4.25;2.33;;;;;;;19.65;73.26;99426.00;2064634;28;20200;-74
2023/08/01 00:34:27;;;;;;;5.38;2.58;;;;;;;19.63;73.34;99422.81;2064108;28;20089;-73
2023/08/01 00:35:31;;;;;;;5.50;2.33;;;;;;;19.63;73.52;99431.00;2056443;28;20047;-74
2023/08/01 00:36:35;;;;;;;2.90;2.08;;;;;;;19.65;73.48;99423.28;2057081;28;20038;-75
2023/08/01 00:37:40;;;;;;;4.88;2.40;;;;;;;19.64;73.46;99429.88;2064435;28;20041;-74
2023/08/01 00:38:43;;;;;;;5.18;2.35;;;;;;;19.63;73.38;99422.03;2057755;28;20035;-74
2023/08/01 00:39:48;;;;;;;3.58;2.25;;;;;;;19.63;73.46;99424.75;2057216;28;20043;-74
2023/08/01 00:40:53;;;;;;;3.83;2.20;;;;;;;19.62;73.39;99423.97;2050754;28;20955;-75
2023/08/01 00:41:57;;;;;;;3.00;2.08;;;;;;;19.61;73.37;99425.16;2057453;28;20036;-75
2023/08/01 00:42:59;;;;;;;8.40;2.53;;;;;;;19.60;73.46;99423.56;2058284;28;20028;-75
2023/08/01 00:44:01;;;;;;;4.88;2.30;;;;;;;19.60;73.46;99426.28;2057184;28;20058;-74
2023/08/01 00:45:06;;;;;;;5.75;2.35;;;;;;;19.59;73.38;99421.19;2049312;28;20051;-74
2023/08/01 00:46:09;;;;;;;3.83;1.90;;;;;;;19.58;73.47;99420.41;2049944;28;20044;-74
2023/08/01 00:47:10;;;;;;;6.18;2.20;;;;;;;19.58;73.68;99425.09;2049605;28;20058;-74
2023/08/01 00:48:12;;;;;;;6.47;2.72;;;;;;;19.58;73.53;99425.88;2057197;28;20051;-74
2023/08/01 00:49:14;;;;;;;4.05;2.10;;;;;;;19.58;73.60;99428.59;2057446;28;20121;-74
2023/08/01 00:50:20;;;;;;;3.92;2.40;;;;;;;19.57;73.13;99420.78;2065031;28;20045;-75
2023/08/01 00:51:24;;;;;;;6.03;2.20;;;;;;;19.57;73.41;99424.28;2065765;28;20783;-74
2023/08/01 00:52:27;;;;;;;4.57;2.33;;;;;;;19.57;73.54;99424.28;2066214;28;20058;-74
2023/08/01 00:53:32;;;;;;;4.95;2.20;;;;;;;19.53;73.61;99412.53;2073539;28;20084;-74
2023/08/01 00:54:36;;;;;;;7.30;2.50;;;;;;;19.55;73.45;99415.69;2093357;28;20027;-74
2023/08/01 00:55:40;;;;;;;4.32;2.03;;;;;;;19.52;73.40;99421.88;2083787;28;20103;-74
2023/08/01 00:56:42;;;;;;;5.78;2.33;;;;;;;19.52;73.54;99416.44;2091804;28;20991;-74
2023/08/01 00:57:45;;;;;;;5.57;2.40;;;;;;;19.52;73.33;99421.88;2092041;28;20762;-74
2023/08/01 00:58:52;;;;;;;3.70;2.28;;;;;;;19.55;73.36;99421.16;2084230;28;20065;-74
2023/08/01 00:59:56;;;;;;;5.53;2.30;;;;;;;19.55;73.30;99426.59;2085868;28;20042;-74
2023/08/01 01:01:00;;;;;;;3.95;2.08;;;;;;;19.56;73.41;99424.66;2092098;28;20053;-74
2023/08/01 01:02:02;;;;;;;6.18;2.50;;;;;;;19.56;73.44;99422.72;2100254;28;20110;-74
2023/08/01 01:03:04;;;;;;;4.90;2.67;;;;;;;19.55;73.33;99418.44;2107597;28;20020;-74
2023/08/01 01:04:06;;;;;;;4.45;2.20;;;;;;;19.55;73.39;99421.16;2099738;28;20863;-74
2023/08/01 01:05:10;;;;;;;5.10;2.20;;;;;;;19.56;73.38;99420.00;2107913;27;20110;-74
2023/08/01 01:06:22;;;;;;;4.10;2.00;;;;;;;19.56;73.43;99416.47;2099695;28;20143;-74
2023/08/01 01:07:23;;;;;;;5.22;2.20;;;;;;;19.53;73.21;99420.72;2102591;28;20036;-74
2023/08/01 01:08:25;;;;;;;3.22;2.10;;;;;;;19.53;73.36;99412.53;2091386;28;20025;-74
2023/08/01 01:09:31;;;;;;;6.25;2.20;;;;;;;19.53;73.27;99422.66;2099821;28;20025;-75
2023/08/01 01:10:33;;;;;;;6.45;2.22;;;;;;;19.54;73.34;99416.84;2100865;28;20143;-74
2023/08/01 01:11:37;;;;;;;3.20;2.10;;;;;;;19.52;73.23;99412.91;2092874;28;20113;-74
2023/08/01 01:12:39;;;;;;;4.38;2.40;;;;;;;19.53;73.28;99418.00;2065554;28;20035;-74
2023/08/01 01:13:41;;;;;;;2.92;2.17;;;;;;;19.51;73.39;99409.38;2073599;28;20026;-75
2023/08/01 01:14:45;;;;;;;3.85;2.22;;;;;;;19.53;73.36;99404.38;2073062;28;20084;-74
2023/08/01 01:15:46;;;;;;;4.35;2.20;;;;;;;19.49;73.25;99400.03;2057671;28;20035;-74
2023/08/01 01:16:54;;;;;;;7.18;3.55;;;;;;;19.53;73.34;99407.09;2058028;28;20824;-74
2023/08/01 01:17:58;;;;;;;3.28;2.13;;;;;;;19.53;73.31;99403.59;2058484;28;20027;-74
2023/08/01 01:19:05;;;;;;;4.25;2.20;;;;;;;19.54;73.26;99403.19;2057676;28;20027;-74
2023/08/01 01:20:07;;;;;;;5.43;2.30;;;;;;;19.53;73.33;99401.63;2050674;28;20031;-74
2023/08/01 01:21:09;;;;;;;3.55;1.98;;;;;;;19.52;73.30;99405.53;2049555;28;20059;-74
2023/08/01 01:22:11;;;;;;;4.53;1.83;;;;;;;19.53;73.37;99400.84;2073584;28;20073;-74
2023/08/01 01:23:12;;;;;;;2.88;2.10;;;;;;;19.55;73.31;99404.78;2073007;28;20043;-74
2023/08/01 01:24:14;;;;;;;5.97;2.40;;;;;;;19.54;73.33;99396.97;2057237;28;20066;-74
2023/08/01 01:25:21;;;;;;;4.43;2.17;;;;;;;19.53;73.41;99396.19;2065530;28;20043;-75
2023/08/01 01:26:23;;;;;;;4.50;2.05;;;;;;;19.53;73.34;99395.41;2057294;28;20153;-75
2023/08/01 01:27:28;;;;;;;4.32;2.15;;;;;;;19.56;73.28;99394.66;2057384;28;20118;-75
2023/08/01 01:28:31;;;;;;;3.55;2.40;;;;;;;19.57;73.17;99393.50;2064876;28;20042;-74
2023/08/01 01:29:36;;;;;;;3.75;2.13;;;;;;;19.57;73.23;99388.84;2056862;28;20149;-74
2023/08/01 01:30:38;;;;;;;3.38;2.15;;;;;;;19.56;73.18;99394.66;2092513;28;20064;-75
2023/08/01 01:31:41;;;;;;;4.10;2.10;;;;;;;19.56;73.48;99390.00;2098379;28;20044;-74
2023/08/01 01:32:44;;;;;;;4.47;2.10;;;;;;;19.57;73.28;99391.56;2065034;28;20041;-74
2023/08/01 01:33:51;;;;;;;6.10;2.20;;;;;;;19.53;73.24;99379.03;2064811;28;20027;-74
2023/08/01 01:34:57;;;;;;;4.80;2.15;;;;;;;19.57;73.19;99386.09;2065581;28;20035;-74
2023/08/01 01:36:03;;;;;;;2.95;1.80;;;;;;;19.58;73.11;99382.25;2057897;28;20874;-74
2023/08/01 01:37:08;;;;;;;3.47;1.77;;;;;;;19.58;73.01;99384.19;2057769;28;20070;-74
2023/08/01 01:38:13;;;;;;;3.63;1.98;;;;;;;19.59;73.07;99372.13;2096337;28;20029;-74
2023/08/01 01:39:14;;;;;;;4.20;2.10;;;;;;;19.56;73.06;99368.19;2057402;28;20035;-74
2023/08/01 01:40:16;;;;;;;2.95;2.03;;;;;;;19.58;73.01;99374.06;2048802;28;20819;-74
2023/08/01 01:41:22;;;;;;;3.35;1.90;;;;;;;19.59;73.12;99369.41;2042294;28;20838;-74
2023/08/01 01:42:24;;;;;;;3.22;1.77;;;;;;;19.58;73.15;99360.44;2058278;28;20118;-74
2023/08/01 01:43:26;;;;;;;3.33;2.08;;;;;;;19.58;72.96;99365.88;2064980;28;20030;-74
2023/08/01 01:44:27;;;;;;;2.75;1.98;;;;;;;19.60;72.98;99365.50;2064555;28;20079;-74
2023/08/01 01:45:32;;;;;;;4.63;2.22;;;;;;;19.58;72.92;99363.16;2057850;28;20020;-74
2023/08/01 01:46:36;;;;;;;2.90;1.80;;;;;;;19.59;73.04;99366.66;2065662;28;20027;-73
2023/08/01 01:47:38;;;;;;;5.53;2.17;;;;;;;19.58;73.15;99376.00;2099749;28;20021;-74
2023/08/01 01:48:42;;;;;;;3.47;1.80;;;;;;;19.58;73.15;99365.09;2090436;28;20029;-74
2023/08/01 01:49:48;;;;;;;3.50;1.90;;;;;;;19.57;73.02;99363.50;2088724;28;20875;-73
2023/08/01 01:50:55;;;;;;;2.90;1.98;;;;;;;19.57;72.96;99364.28;2064657;28;20031;-74
2023/08/01 01:51:59;;;;;;;3.15;1.95;;;;;;;19.59;73.08;99362.00;2065861;28;20027;-74
2023/08/01 01:53:06;;;;;;;3.75;1.80;;;;;;;19.58;73.02;99359.66;2066222;28;20070;-74
2023/08/01 01:54:13;;;;;;;4.78;1.92;;;;;;;19.57;73.19;99358.06;2065912;28;20030;-74
2023/08/01 01:55:14;;;;;;;3.90;1.90;;;;;;;19.57;73.16;99358.06;2057691;28;20858;-74
2023/08/01 01:56:16;;;;;;;3.90;2.20;;;;;;;19.56;73.22;99357.28;2057002;28;20030;-74
2023/08/01 01:57:20;;;;;;;6.07;1.80;;;;;;;19.53;73.50;99349.84;2056856;28;21351;-74
2023/08/01 01:58:24;;;;;;;3.08;1.98;;;;;;;19.52;73.11;99353.72;2066104;28;20042;-74
2023/08/01 01:59:25;;;;;;;3.05;1.80;;;;;;;19.52;73.31;99356.47;2057045;28;20019;-74
2023/08/01 02:00:27;;;;;;;3.17;1.80;;;;;;;19.49;73.44;99346.28;2057308;28;20043;-74
2023/08/01 02:01:31;;;;;;;3.78;2.10;;;;;;;19.51;73.40;99341.22;2064927;28;20029;-74
2023/08/01 02:02:33;;;;;;;3.50;1.70;;;;;;;19.48;73.52;99352.88;2065779;28;20074;-74
2023/08/01 02:03:35;;;;;;;2.92;1.75;;;;;;;19.50;73.57;99352.53;2056694;28;20198;-74
2023/08/01 02:04:37;;;;;;;2.70;1.80;;;;;;;19.49;73.60;99349.00;2056980;28;20882;-74
2023/08/01 02:05:43;;;;;;;3.67;1.77;;;;;;;19.48;73.54;99341.19;2057346;28;20109;-74
2023/08/01 02:06:48;;;;;;;2.83;1.80;;;;;;;19.47;73.58;99345.84;2067641;28;20881;-75
2023/08/01 02:07:50;;;;;;;3.13;2.28;;;;;;;19.49;73.75;99345.50;2064941;28;20816;-74
2023/08/01 02:08:52;;;;;;;4.43;2.00;;;;;;;19.48;73.50;99344.69;2041091;28;20036;-74
2023/08/01 02:09:56;;;;;;;3.30;1.92;;;;;;;19.45;73.61;99332.59;2049085;28;20039;-74
2023/08/01 02:11:00;;;;;;;2.60;1.80;;;;;;;19.48;73.66;99339.25;2050546;28;20107;-74
2023/08/01 02:12:09;;;;;;;2.10;1.52;;;;;;;19.46;73.79;99336.13;2057559;28;20023;-74
2023/08/01 02:13:13;;;;;;;2.30;1.77;;;;;;;19.47;73.79;99345.06;2058051;28;20897;-74
2023/08/01 02:14:15;;;;;;;3.85;1.80;;;;;;;19.46;73.66;99336.13;2057720;28;20041;-74
2023/08/01 02:15:18;;;;;;;2.47;1.88;;;;;;;19.43;73.75;99336.84;2065364;28;20019;-74
2023/08/01 02:16:23;;;;;;;2.30;1.65;;;;;;;19.42;73.66;99333.34;2073834;28;20073;-74
2023/08/01 02:17:28;;;;;;;3.17;1.80;;;;;;;19.41;73.90;99333.69;2073254;28;20027;-74
2023/08/01 02:18:29;;;;;;;4.05;1.80;;;;;;;19.42;73.97;99340.75;2073267;28;20064;-74
2023/08/01 02:19:35;;;;;;;5.28;1.92;;;;;;;19.38;73.82;99335.22;2072864;28;20031;-74
2023/08/01 02:20:38;;;;;;;3.63;1.80;;;;;;;19.42;73.93;99338.00;2064571;28;20077;-74
2023/08/01 02:21:42;;;;;;;3.30;1.65;;;;;;;19.38;74.16;99335.22;2050704;28;20046;-74
2023/08/01 02:22:44;;;;;;;4.10;1.70;;;;;;;19.40;73.96;99334.84;2057770;28;20039;-74
2023/08/01 02:23:46;;;;;;;2.35;1.60;;;;;;;19.40;73.95;99332.13;2057133;28;20093;-74
2023/08/01 02:24:48;;;;;;;2.60;1.80;;;;;;;19.40;74.17;99327.47;2056772;28;20039;-74
2023/08/01 02:25:51;;;;;;;2.05;1.58;;;;;;;19.40;74.00;99324.75;2056945;28;20019;-74
2023/08/01 02:27:18;;;;;;;2.17;1.63;;;;;;;19.39;74.04;99325.13;2071140;28;20876;-74
2023/08/01 02:28:24;;;;;;;3.65;1.77;;;;;;;19.40;74.16;99332.13;2080211;28;20141;-74
2023/08/01 02:29:31;;;;;;;4.53;2.15;;;;;;;19.37;74.22;99330.13;2066357;28;20035;-74
2023/08/01 02:30:36;;;;;;;3.55;1.80;;;;;;;19.39;74.25;99325.91;2065612;28;20847;-75
2023/08/01 02:31:38;;;;;;;3.65;2.50;;;;;;;19.38;74.14;99329.75;2066109;28;20943;-75
2023/08/01 02:32:40;;;;;;;2.55;1.92;;;;;;;19.39;74.20;99325.13;2072400;28;20041;-74
2023/08/01 02:33:43;;;;;;;3.58;1.80;;;;;;;19.39;74.21;99327.84;2081253;28;20036;-74
2023/08/01 02:34:48;;;;;;;4.65;1.83;;;;;;;19.39;74.20;99325.13;2073034;28;20882;-74
2023/08/01 02:35:49;;;;;;;3.03;1.90;;;;;;;19.39;74.20;99323.16;2065865;28;20043;-74
2023/08/01 02:36:54;;;;;;;2.97;1.80;;;;;;;19.39;74.18;99322.41;2073578;28;20082;-74
2023/08/01 02:37:55;;;;;;;3.72;2.38;;;;;;;19.40;74.41;99322.00;2081785;28;20156;-74
2023/08/01 02:38:58;;;;;;;2.75;1.60;;;;;;;19.40;74.21;99322.00;2064941;28;20077;-74
2023/08/01 02:40:01;;;;;;;3.60;1.67;;;;;;;19.41;74.24;99322.78;2073654;28;20034;-74
2023/08/01 02:41:04;;;;;;;2.65;1.70;;;;;;;19.40;73.98;99318.50;2080935;28;20038;-75
2023/08/01 02:42:06;;;;;;;3.42;1.60;;;;;;;19.41;74.09;99320.84;2065040;28;20031;-74
2023/08/01 02:43:09;;;;;;;2.35;1.70;;;;;;;19.40;74.05;99318.50;2073119;28;20027;-74
2023/08/01 02:44:10;;;;;;;6.25;2.22;;;;;;;19.39;74.07;99311.50;2064822;28;20039;-74
2023/08/01 02:45:16;;;;;;;4.60;1.92;;;;;;;19.39;74.04;99314.22;2056574;28;20047;-74
2023/08/01 02:46:18;;;;;;;3.17;1.80;;;;;;;19.37;74.11;99316.50;2074258;28;20038;-74
2023/08/01 02:47:25;;;;;;;3.03;1.90;;;;;;;19.38;74.19;99312.63;2073312;28;20078;-74
2023/08/01 02:48:28;;;;;;;3.13;2.08;;;;;;;19.38;74.18;99318.06;2066655;28;20066;-74
2023/08/01 02:49:29;;;;;;;4.03;1.77;;;;;;;19.38;74.09;99318.06;2064849;28;20063;-74
2023/08/01 02:50:30;;;;;;;2.83;1.77;;;;;;;19.38;73.99;99312.63;2064678;28;20108;-74
2023/08/01 02:51:39;;;;;;;3.38;1.90;;;;;;;19.39;73.98;99311.50;2081656;28;20091;-74
2023/08/01 02:52:41;;;;;;;3.80;2.13;;;;;;;19.38;73.99;99315.34;2080853;28;20161;-74
2023/08/01 02:53:45;;;;;;;3.03;2.00;;;;;;;19.37;74.04;99311.06;2081291;28;20928;-75
2023/08/01 02:54:48;;;;;;;5.18;2.00;;;;;;;19.37;73.97;99316.50;2088889;28;20219;-74
2023/08/01 02:55:51;;;;;;;6.15;2.20;;;;;;;19.34;73.90;99307.13;2072679;28;20793;-74
2023/08/01 02:56:53;;;;;;;3.47;1.83;;;;;;;19.36;73.92;99309.50;2057189;28;20049;-74
2023/08/01 02:57:55;;;;;;;4.72;1.90;;;;;;;19.35;74.08;99307.91;2073103;28;20127;-74
2023/08/01 02:58:57;;;;;;;2.95;1.90;;;;;;;19.35;73.95;99314.13;2081035;28;20022;-74
2023/08/01 03:00:04;;;;;;;7.05;1.98;;;;;;;19.34;73.94;99311.78;2058938;28;20047;-74
2023/08/01 03:01:13;;;;;;;5.97;2.28;;;;;;;19.35;73.94;99310.63;2057823;28;20816;-74
2023/08/01 03:02:20;;;;;;;3.53;2.03;;;;;;;19.34;73.91;99304.41;2048496;28;20102;-74
2023/08/01 03:03:23;;;;;;;6.85;2.30;;;;;;;19.32;73.96;99303.97;2041831;28;20036;-74
2023/08/01 03:04:27;;;;;;;6.40;2.22;;;;;;;19.31;74.01;99307.06;2039562;28;20150;-74
2023/08/01 03:05:31;;;;;;;4.90;2.22;;;;;;;19.31;73.75;99304.34;2040183;28;20044;-75
2023/08/01 03:06:34;;;;;;;3.75;1.80;;;;;;;19.32;73.86;99303.19;2047764;28;20043;-75
2023/08/01 03:07:36;;;;;;;3.28;2.20;;;;;;;19.32;73.89;99308.66;2055618;28;21276;-74
2023/08/01 03:08:40;;;;;;;3.90;2.28;;;;;;;19.31;73.81;99305.13;2047291;28;20769;-74
2023/08/01 03:09:46;;;;;;;3.25;1.83;;;;;;;19.30;73.78;99306.31;2048578;28;20758;-74
2023/08/01 03:10:48;;;;;;;3.72;1.92;;;;;;;19.31;73.84;99296.19;2056016;28;20222;-74
2023/08/01 03:11:50;;;;;;;2.67;2.00;;;;;;;19.31;73.91;99296.97;2053624;28;20039;-75
2023/08/01 03:12:54;;;;;;;4.50;1.90;;;;;;;19.31;74.12;99282.56;2063781;28;20039;-75
2023/08/01 03:14:04;;;;;;;4.00;2.05;;;;;;;19.33;73.78;99288.44;2087795;28;20021;-74
2023/08/01 03:15:10;;;;;;;3.45;1.95;;;;;;;19.30;73.75;99286.44;2087795;28;20880;-74
2023/08/01 03:16:15;;;;;;;5.50;2.08;;;;;;;19.32;73.65;99286.84;2080218;28;20847;-74
2023/08/01 03:17:18;;;;;;;3.92;1.90;;;;;;;19.34;73.63;99290.78;2071478;28;20037;-74
2023/08/01 03:18:21;;;;;;;5.07;2.10;;;;;;;19.33;73.67;99291.16;2057282;28;20082;-75
2023/08/01 03:19:24;;;;;;;8.30;2.20;;;;;;;19.32;73.32;99292.28;2055141;28;20065;-74
2023/08/01 03:20:27;;;;;;;3.05;1.63;;;;;;;19.34;73.52;99290.00;2071659;28;20031;-74
2023/08/01 03:21:36;;;;;;;5.38;2.13;;;;;;;19.35;73.68;99291.56;2071292;28;20022;-74
2023/08/01 03:22:41;;;;;;;5.72;1.95;;;;;;;19.35;73.45;99291.56;2073779;28;20034;-75
2023/08/01 03:23:43;;;;;;;4.43;2.13;;;;;;;19.34;73.44;99290.00;2063827;28;20042;-75
2023/08/01 03:24:46;;;;;;;3.35;2.03;;;;;;;19.37;73.41;99292.75;2048489;28;20044;-75
2023/08/01 03:25:48;;;;;;;3.25;1.92;;;;;;;19.38;73.35;99296.28;2048825;28;20036;-75
2023/08/01 03:26:53;;;;;;;6.28;1.92;;;;;;;19.36;73.34;99287.69;2048231;28;21426;-75
2023/08/01 03:27:54;;;;;;;4.72;2.00;;;;;;;19.36;73.41;99293.94;2070154;28;20026;-74
2023/08/01 03:28:56;;;;;;;7.68;2.15;;;;;;;19.37;73.43;99290.03;2064038;28;20915;-74
2023/08/01 03:29:58;;;;;;;3.70;2.30;;;;;;;19.38;73.27;99291.59;2064297;28;20031;-74
2023/08/01 03:31:03;;;;;;;3.42;2.15;;;;;;;19.40;73.24;99293.97;2056432;28;20142;-74
2023/08/01 03:32:06;;;;;;;6.53;2.20;;;;;;;19.38;73.12;99279.91;2056807;28;20071;-74
2023/08/01 03:33:11;;;;;;;4.38;2.10;;;;;;;19.41;73.21;99290.09;2048777;28;20473;-74
2023/08/01 03:34:12;;;;;;;3.67;2.08;;;;;;;19.42;73.08;99291.69;2064883;28;20871;-74
2023/08/01 03:35:13;;;;;;;3.40;2.15;;;;;;;19.44;72.88;99281.16;2072670;28;20027;-74
2023/08/01 03:36:15;;;;;;;3.08;2.10;;;;;;;19.44;73.03;99278.44;2064450;28;20125;-74
2023/08/01 03:37:17;;;;;;;3.13;1.80;;;;;;;19.44;73.04;99273.78;2056792;28;20024;-74
2023/08/01 03:38:22;;;;;;;2.83;2.10;;;;;;;19.45;72.99;99285.47;2064627;28;20155;-74
2023/08/01 03:39:24;;;;;;;6.03;2.50;;;;;;;19.48;72.91;99276.53;2057069;28;20905;-74
2023/08/01 03:40:27;;;;;;;3.35;2.17;;;;;;;19.48;72.83;99279.28;2049206;28;20031;-74
2023/08/01 03:41:29;;;;;;;4.78;2.30;;;;;;;19.48;72.79;99275.75;2064619;28;20082;-74
2023/08/01 03:42:36;;;;;;;3.03;2.13;;;;;;;19.49;72.72;99280.06;2064536;28;20124;-74
2023/08/01 03:43:40;;;;;;;5.47;2.25;;;;;;;19.49;72.68;99267.22;2050298;28;20103;-75
2023/08/01 03:44:50;;;;;;;3.78;2.30;;;;;;;19.50;72.54;99276.19;2057989;28;20031;-75
2023/08/01 03:45:52;;;;;;;4.00;2.17;;;;;;;19.49;72.46;99269.97;2056852;28;20034;-74
2023/08/01 03:46:55;;;;;;;6.70;2.20;;;;;;;19.50;72.52;99278.91;2064926;28;20088;-74
2023/08/01 03:47:59;;;;;;;4.43;2.40;;;;;;;19.49;72.49;99269.97;2056153;28;20070;-74
2023/08/01 03:49:02;;;;;;;4.57;2.17;;;;;;;19.51;72.49;99269.56;2057027;28;20062;-74
2023/08/01 03:50:05;;;;;;;3.60;2.10;;;;;;;19.50;72.33;99266.06;2064327;28;20030;-74
2023/08/01 03:51:07;;;;;;;3.90;2.03;;;;;;;19.52;72.31;99279.34;2071987;28;20124;-74
2023/08/01 03:52:14;;;;;;;6.13;2.10;;;;;;;19.51;72.31;99259.44;2080784;28;20038;-74
2023/08/01 03:53:16;;;;;;;5.25;1.88;;;;;;;19.52;72.32;99265.72;2072429;28;20030;-74
2023/08/01 03:54:20;;;;;;;4.78;2.10;;;;;;;19.52;72.10;99268.44;2049283;28;20038;-75
2023/08/01 03:55:23;;;;;;;3.28;2.10;;;;;;;19.53;72.16;99270.78;2065624;28;20108;-75
2023/08/01 03:56:28;;;;;;;3.00;2.10;;;;;;;19.54;72.14;99260.66;2080419;28;20130;-75
2023/08/01 03:57:33;;;;;;;3.72;2.33;;;;;;;19.54;72.36;99261.44;2072417;28;20861;-74
2023/08/01 03:58:35;;;;;;;3.90;2.22;;;;;;;19.56;72.13;99261.84;2064746;28;20089;-75
2023/08/01 03:59:37;;;;;;;4.00;2.40;;;;;;;19.56;72.00;99261.84;2072811;28;20058;-75
2023/08/01 04:00:45;;;;;;;3.53;2.15;;;;;;;19.56;71.93;99253.69;2072219;28;20076;-74
2023/08/01 04:01:54;;;;;;;4.22;2.00;;;;;;;19.57;72.03;99252.50;2073696;28;20054;-75
2023/08/01 04:03:00;;;;;;;4.25;2.40;;;;;;;19.57;71.99;99254.47;2072380;28;20141;-74
2023/08/01 04:04:02;;;;;;;4.82;2.28;;;;;;;19.57;71.95;99254.47;2065617;28;20139;-74
2023/08/01 04:05:05;;;;;;;2.88;2.08;;;;;;;19.59;71.97;99258.41;2072168;28;20153;-75
2023/08/01 04:06:15;;;;;;;5.05;2.20;;;;;;;19.60;72.01;99254.50;2064365;28;20035;-74
2023/08/01 04:07:18;;;;;;;5.25;2.15;;;;;;;19.61;71.85;99255.31;2065490;28;20149;-74
2023/08/01 04:08:23;;;;;;;3.22;2.30;;;;;;;19.62;71.76;99259.59;2065015;28;20081;-74
2023/08/01 04:09:27;;;;;;;5.07;2.28;;;;;;;19.63;71.73;99253.75;2065029;28;20031;-74
2023/08/01 04:10:28;;;;;;;6.88;2.30;;;;;;;19.62;71.75;99252.19;2065026;28;20034;-75
2023/08/01 04:11:33;;;;;;;3.97;2.00;;;;;;;19.66;71.79;99246.81;2082882;28;20147;-74
2023/08/01 04:12:34;;;;;;;3.38;2.10;;;;;;;19.66;71.68;99255.00;2079956;28;20034;-74
2023/08/01 04:13:39;;;;;;;3.53;1.95;;;;;;;19.69;71.67;99256.97;2073383;28;20047;-74
2023/08/01 04:14:45;;;;;;;4.28;2.00;;;;;;;19.67;71.41;99260.09;2072621;28;20026;-74
2023/08/01 04:15:49;;;;;;;5.88;1.98;;;;;;;19.70;71.52;99249.59;2073208;28;20788;-75
2023/08/01 04:16:53;;;;;;;3.10;2.10;;;;;;;19.72;71.50;99258.97;2064323;28;20035;-74
2023/08/01 04:17:58;;;;;;;6.28;2.50;;;;;;;19.73;71.43;99260.53;2073235;28;20082;-74
2023/08/01 04:18:59;;;;;;;5.60;2.40;;;;;;;19.73;71.32;99252.34;2064734;28;20963;-74
2023/08/01 04:20:04;;;;;;;3.35;2.28;;;;;;;19.73;71.30;99252.34;2072623;28;20085;-74
2023/08/01 04:21:08;;;;;;;4.95;2.15;;;;;;;19.75;71.29;99255.50;2064579;28;20766;-74
2023/08/01 04:22:13;;;;;;;5.40;2.30;;;;;;;19.75;71.20;99254.72;2058889;28;20043;-74
2023/08/01 04:23:14;;;;;;;8.60;2.50;;;;;;;19.78;71.19;99253.97;2072548;28;20035;-74
2023/08/01 04:24:16;;;;;;;3.92;2.20;;;;;;;19.79;71.12;99247.34;2081062;28;20901;-74
2023/08/01 04:25:24;;;;;;;6.55;2.47;;;;;;;19.80;71.04;99252.44;2088906;28;20033;-74
2023/08/01 04:26:30;;;;;;;5.10;2.38;;;;;;;19.80;71.18;99246.22;2080347;28;20038;-74
2023/08/01 04:27:35;;;;;;;4.60;2.47;;;;;;;19.80;70.95;99248.94;2072495;28;20065;-74
2023/08/01 04:28:37;;;;;;;9.02;2.10;;;;;;;19.80;70.84;99252.44;2064866;28;20029;-74
2023/08/01 04:29:40;;;;;;;3.15;1.90;;;;;;;19.82;70.94;99238.44;2072371;28;20152;-74
2023/08/01 04:30:41;;;;;;;5.28;2.08;;;;;;;19.82;70.96;99244.66;2056269;28;20066;-74
2023/08/01 04:31:46;;;;;;;3.95;2.38;;;;;;;19.81;70.90;99234.13;2064383;28;21277;-74
2023/08/01 04:32:49;;;;;;;6.15;2.58;;;;;;;19.84;70.85;99236.13;2072407;28;20046;-75
2023/08/01 04:33:53;;;;;;;5.40;2.08;;;;;;;19.83;70.81;99240.81;2072745;28;20037;-75
2023/08/01 04:34:59;;;;;;;4.07;2.08;;;;;;;19.84;70.84;99236.13;2073146;28;20865;-75
2023/08/01 04:36:01;;;;;;;5.50;2.30;;;;;;;19.84;70.75;99230.66;2080478;28;20806;-74
2023/08/01 04:37:05;;;;;;;3.03;1.88;;;;;;;19.86;70.88;99241.97;2080164;28;20855;-75
2023/08/01 04:38:11;;;;;;;4.10;2.22;;;;;;;19.85;70.79;99234.97;2056446;28;20044;-75
2023/08/01 04:39:15;;;;;;;7.38;2.20;;;;;;;19.82;70.62;99222.06;2058445;28;20058;-75
2023/08/01 04:40:21;;;;;;;3.08;2.17;;;;;;;19.86;70.46;99236.53;2073268;28;20046;-74
2023/08/01 04:41:23;;;;;;;3.90;2.00;;;;;;;19.87;70.73;99232.66;2080526;28;20038;-74
2023/08/01 04:42:25;;;;;;;3.80;2.15;;;;;;;19.89;70.59;99227.59;2080459;28;21042;-74
2023/08/01 04:43:27;;;;;;;3.22;1.98;;;;;;;19.90;70.55;99223.72;2072413;28;20089;-74
2023/08/01 04:44:30;;;;;;;5.60;2.20;;;;;;;19.90;70.63;99223.72;2063881;28;20031;-74
2023/08/01 04:45:31;;;;;;;3.38;2.10;;;;;;;19.93;70.47;99233.09;2056284;28;20043;-74
2023/08/01 04:46:36;;;;;;;5.25;2.05;;;;;;;19.93;70.48;99228.44;2065370;28;20031;-74
2023/08/01 04:47:41;;;;;;;4.22;2.22;;;;;;;19.94;70.53;99230.00;2080176;28;20092;-74
2023/08/01 04:48:48;;;;;;;4.45;2.38;;;;;;;19.94;70.28;99229.22;2071715;28;20967;-74
2023/08/01 04:49:50;;;;;;;4.03;2.30;;;;;;;19.95;70.31;99225.31;2064832;28;20892;-74
2023/08/01 04:50:57;;;;;;;4.15;2.50;;;;;;;19.96;70.65;99230.41;2072105;28;20023;-74
2023/08/01 04:52:00;;;;;;;5.93;2.72;;;;;;;19.94;70.24;99230.00;2065601;28;20200;-74
2023/08/01 04:53:04;;;;;;;4.18;1.80;;;;;;;19.94;70.33;99224.53;2072214;28;20089;-75
2023/08/01 04:54:05;;;;;;;4.75;2.40;;;;;;;19.97;70.41;99233.91;2064262;28;20047;-74
2023/08/01 04:55:12;;;;;;;4.53;2.15;;;;;;;19.96;70.49;99233.16;2056062;28;20125;-75
2023/08/01 04:56:21;;;;;;;6.05;2.30;;;;;;;19.97;70.47;99229.25;2059739;28;20040;-74
2023/08/01 04:57:23;;;;;;;5.45;2.10;;;;;;;19.97;70.36;99229.25;2064854;28;20035;-74
2023/08/01 04:58:25;;;;;;;4.68;2.65;;;;;;;19.99;70.36;99234.34;2055832;28;20027;-75
2023/08/01 04:59:32;;;;;;;4.55;2.05;;;;;;;20.00;70.48;99236.69;2065195;28;20027;-75
2023/08/01 05:00:34;;;;;;;4.47;1.88;;;;;;;20.00;70.33;99233.94;2064730;28;20058;-75